Time;durP1;ratioP1;P1;durP2;ratioP2;P2;SDS_P1;SDS_P2;PMS_P1;PMS_P2;Temp;Humidity;BMP_temperature;BMP_pressure;BME280_temperature;BME280_humidity;BME280_pressure;Samples;Min_cycle;Max_cycle;Signal;HPM_P1;HPM_P2
2022/07/22 00:02:16;;;;;;;7.78;6.00;;;23.30;99.90;;;;;;4988304;28;20237;-72
2022/07/22 00:04:41;;;;;;;9.45;5.80;;;23.40;99.90;;;;;;4988621;28;20212;-72
2022/07/22 00:07:07;;;;;;;6.60;5.75;;;23.40;99.90;;;;;;4999315;28;20744;-71
2022/07/22 00:09:33;;;;;;;7.40;6.70;;;23.50;99.90;;;;;;4992196;28;20276;-71
2022/07/22 00:11:59;;;;;;;6.60;5.88;;;23.40;99.90;;;;;;4987675;28;20193;-70
2022/07/22 00:14:25;;;;;;;6.15;5.55;;;23.50;99.90;;;;;;4989258;28;20202;-71
2022/07/22 00:16:50;;;;;;;7.38;5.85;;;23.50;99.90;;;;;;4996801;28;20223;-71
2022/07/22 00:19:16;;;;;;;6.50;5.85;;;23.50;99.90;;;;;;4988270;28;20248;-70
2022/07/22 00:21:41;;;;;;;7.15;5.85;;;23.60;99.90;;;;;;4988284;28;20288;-70
2022/07/22 00:24:07;;;;;;;6.60;5.55;;;23.40;99.90;;;;;;4998406;28;20229;-71
2022/07/22 00:26:33;;;;;;;7.15;6.30;;;23.40;99.90;;;;;;4985271;28;20210;-71
2022/07/22 00:28:58;;;;;;;6.85;5.78;;;23.40;99.90;;;;;;4985025;28;20218;-71
2022/07/22 00:31:24;;;;;;;6.97;6.22;;;23.40;99.90;;;;;;4983488;28;20240;-71
2022/07/22 00:33:50;;;;;;;7.05;5.43;;;23.30;99.90;;;;;;4993885;28;20205;-72
2022/07/22 00:36:15;;;;;;;6.80;6.13;;;23.30;99.90;;;;;;5006165;28;20181;-71
2022/07/22 00:38:41;;;;;;;7.72;5.97;;;23.20;99.90;;;;;;5004896;28;20177;-70
2022/07/22 00:41:06;;;;;;;6.80;6.20;;;23.10;99.90;;;;;;5009832;28;20223;-72
2022/07/22 00:43:53;;;;;;;6.88;6.10;;;23.10;99.90;;;;;;5005663;28;20792;-71
2022/07/22 00:46:18;;;;;;;9.07;6.55;;;23.10;99.90;;;;;;5002982;28;20221;-72
2022/07/22 00:48:44;;;;;;;7.78;6.10;;;23.20;99.90;;;;;;5006391;28;20205;-71
2022/07/22 00:51:10;;;;;;;6.28;5.68;;;23.10;99.90;;;;;;5007990;28;20209;-71
2022/07/22 00:53:35;;;;;;;7.47;5.50;;;23.20;99.90;;;;;;5005216;28;20554;-72
2022/07/22 00:56:03;;;;;;;6.55;5.90;;;23.20;99.90;;;;;;5002084;28;20212;-72
2022/07/22 00:58:28;;;;;;;7.22;6.53;;;23.20;99.90;;;;;;5006772;28;20205;-71
2022/07/22 01:00:54;;;;;;;6.68;5.53;;;23.20;99.90;;;;;;5009279;28;20677;-71
2022/07/22 01:03:20;;;;;;;5.97;5.38;;;23.10;99.90;;;;;;5001920;28;20202;-71
2022/07/22 01:05:45;;;;;;;6.55;5.45;;;23.10;99.90;;;;;;5006999;28;20173;-71
2022/07/22 01:08:12;;;;;;;7.63;5.88;;;23.20;99.90;;;;;;5008633;28;20295;-71
2022/07/22 01:10:37;;;;;;;5.57;5.07;;;23.10;99.90;;;;;;5004290;28;20209;-71
2022/07/22 01:13:03;;;;;;;6.15;5.38;;;23.10;99.90;;;;;;5002124;28;20589;-72
2022/07/22 01:15:28;;;;;;;6.57;5.00;;;23.00;99.90;;;;;;4989156;28;20213;-72
2022/07/22 01:17:54;;;;;;;7.30;5.25;;;22.90;99.90;;;;;;5007499;28;20177;-71
2022/07/22 01:20:20;;;;;;;5.50;5.00;;;22.80;99.90;;;;;;5002121;28;20206;-71
2022/07/22 01:22:45;;;;;;;5.65;4.95;;;22.80;99.90;;;;;;5009904;28;20221;-72
2022/07/22 01:25:11;;;;;;;6.57;4.60;;;22.70;99.90;;;;;;5007859;28;20297;-70
2022/07/22 01:27:37;;;;;;;5.03;4.63;;;22.70;99.90;;;;;;5004694;28;20205;-70
2022/07/22 01:30:06;;;;;;;5.47;4.97;;;22.80;99.90;;;;;;4991642;28;20189;-71
2022/07/22 01:32:32;;;;;;;5.78;4.40;;;22.80;99.90;;;;;;5002812;28;20729;-71
2022/07/22 01:34:57;;;;;;;6.22;4.47;;;22.90;99.90;;;;;;5007194;28;20211;-71
2022/07/22 01:37:23;;;;;;;5.22;4.78;;;22.80;99.90;;;;;;5004077;28;20216;-71
2022/07/22 01:39:49;;;;;;;5.68;4.68;;;22.70;99.90;;;;;;5003193;28;20205;-72
2022/07/22 01:42:15;;;;;;;5.97;4.93;;;22.80;99.90;;;;;;5007228;28;20299;-72
2022/07/22 01:44:41;;;;;;;4.88;4.47;;;22.60;99.90;;;;;;4987873;28;20263;-71
2022/07/22 01:47:07;;;;;;;4.85;4.22;;;22.60;99.90;;;;;;5001814;28;20219;-70
2022/07/22 01:49:34;;;;;;;6.05;4.80;;;22.60;99.90;;;;;;5006787;28;20710;-70
2022/07/22 01:52:00;;;;;;;5.20;4.68;;;22.50;99.90;;;;;;5006873;28;20232;-71
2022/07/22 01:54:26;;;;;;;5.50;4.95;;;22.50;99.90;;;;;;5001630;28;20196;-71
2022/07/22 01:56:51;;;;;;;6.03;4.90;;;22.60;99.90;;;;;;5003324;28;20173;-71
2022/07/22 01:59:17;;;;;;;5.40;4.85;;;22.50;99.90;;;;;;5006612;28;20228;-71
2022/07/22 02:01:43;;;;;;;5.05;4.50;;;22.50;99.90;;;;;;5004935;28;20205;-70
2022/07/22 02:04:08;;;;;;;4.95;4.45;;;22.50;99.90;;;;;;5001546;28;20216;-71
2022/07/22 02:06:34;;;;;;;6.35;4.90;;;22.60;99.90;;;;;;4999102;28;20216;-71
2022/07/22 02:08:59;;;;;;;5.07;4.55;;;22.50;99.90;;;;;;5006147;28;20185;-70
2022/07/22 02:11:25;;;;;;;6.40;4.50;;;22.50;99.90;;;;;;5001596;28;20217;-71
2022/07/22 02:13:50;;;;;;;4.85;4.40;;;22.50;99.90;;;;;;5002724;28;20574;-71
2022/07/22 02:16:16;;;;;;;5.38;4.68;;;22.50;99.90;;;;;;5007022;28;20205;-71
2022/07/22 02:18:42;;;;;;;5.28;4.72;;;22.40;99.90;;;;;;5004599;28;20205;-71
2022/07/22 02:21:07;;;;;;;5.93;4.70;;;22.30;99.90;;;;;;5002068;28;20211;-71
2022/07/22 02:23:33;;;;;;;5.30;4.80;;;22.20;99.90;;;;;;5006817;28;20841;-71
2022/07/22 02:25:58;;;;;;;5.47;4.97;;;22.10;99.90;;;;;;4989172;28;20700;-71
2022/07/22 02:28:24;;;;;;;6.85;5.40;;;22.20;99.90;;;;;;5001668;28;20201;-71
2022/07/22 02:30:49;;;;;;;5.95;5.35;;;22.20;99.90;;;;;;5002029;28;20209;-71
2022/07/22 02:33:15;;;;;;;6.70;5.70;;;22.20;99.90;;;;;;5007503;28;20185;-70
2022/07/22 02:35:41;;;;;;;6.28;5.55;;;22.10;99.90;;;;;;5005718;28;20264;-71
2022/07/22 02:38:06;;;;;;;6.10;5.50;;;22.10;99.90;;;;;;5019177;28;20273;-71
2022/07/22 02:40:32;;;;;;;6.43;5.53;;;22.10;99.90;;;;;;5025817;28;20208;-71
2022/07/22 02:42:58;;;;;;;8.13;5.88;;;21.90;99.90;;;;;;5019405;28;20213;-71
2022/07/22 02:45:24;;;;;;;5.97;5.38;;;21.90;99.90;;;;;;5002036;28;20551;-71
2022/07/22 02:47:53;;;;;;;5.95;5.30;;;21.90;99.90;;;;;;5006542;28;20196;-71
2022/07/22 02:50:19;;;;;;;6.85;5.57;;;22.00;99.90;;;;;;5006824;28;20212;-71
2022/07/22 02:52:44;;;;;;;5.90;5.38;;;21.90;99.90;;;;;;5005442;28;20205;-72
2022/07/22 02:55:10;;;;;;;5.95;5.35;;;21.90;99.90;;;;;;4999093;28;20206;-72
2022/07/22 02:57:36;;;;;;;7.47;6.53;;;22.00;99.90;;;;;;4999380;28;20586;-72
2022/07/22 03:00:03;;;;;;;6.90;6.05;;;22.00;99.90;;;;;;4986840;28;20173;-72
2022/07/22 03:02:29;;;;;;;7.30;5.78;;;22.00;99.90;;;;;;4997372;28;20304;-73
2022/07/22 03:04:55;;;;;;;7.88;6.70;;;21.90;99.90;;;;;;4987873;28;20260;-72
2022/07/22 03:07:20;;;;;;;7.05;6.35;;;21.90;99.90;;;;;;5000270;28;20208;-74
2022/07/22 03:09:46;;;;;;;7.38;6.68;;;21.90;99.90;;;;;;5000171;28;20193;-72
2022/07/22 03:12:12;;;;;;;7.32;6.63;;;21.80;99.90;;;;;;5002864;28;20197;-72
2022/07/22 03:14:37;;;;;;;7.03;6.32;;;21.80;99.90;;;;;;5001756;28;20185;-72
2022/07/22 03:17:03;;;;;;;7.32;6.63;;;21.70;99.90;;;;;;5004465;28;20213;-72
2022/07/22 03:19:28;;;;;;;6.78;5.78;;;21.60;99.90;;;;;;5000875;28;20206;-72
2022/07/22 03:21:54;;;;;;;9.52;7.20;;;21.60;99.90;;;;;;4983810;28;20233;-72
2022/07/22 03:24:19;;;;;;;8.25;7.38;;;21.50;99.90;;;;;;5005298;28;20244;-71
2022/07/22 03:26:45;;;;;;;7.25;6.57;;;21.50;99.90;;;;;;5005765;28;20186;-72
2022/07/22 03:29:10;;;;;;;7.47;6.78;;;21.50;99.90;;;;;;5002566;28;20197;-72
2022/07/22 03:31:36;;;;;;;7.57;6.72;;;21.50;99.90;;;;;;5000492;28;20628;-72
2022/07/22 03:34:01;;;;;;;7.13;6.38;;;21.50;99.90;;;;;;4989179;28;20205;-72
2022/07/22 03:36:29;;;;;;;9.48;7.13;;;21.60;99.90;;;;;;5001074;28;20170;-72
2022/07/22 03:38:55;;;;;;;9.68;8.07;;;21.60;99.90;;;;;;5004168;28;20173;-73
2022/07/22 03:41:20;;;;;;;9.45;7.75;;;21.60;99.90;;;;;;5000727;28;20208;-72
2022/07/22 03:43:47;;;;;;;8.07;7.25;;;21.60;99.90;;;;;;5000191;28;20228;-72
2022/07/22 03:46:13;;;;;;;9.20;8.00;;;21.60;99.90;;;;;;5002353;28;20209;-72
2022/07/22 03:48:38;;;;;;;8.38;7.55;;;21.70;99.90;;;;;;5000014;28;20228;-72
2022/07/22 03:51:04;;;;;;;9.40;8.15;;;21.70;99.90;;;;;;5004501;28;20292;-73
2022/07/22 03:53:30;;;;;;;10.52;9.35;;;21.70;99.90;;;;;;5000489;28;20229;-72
2022/07/22 03:55:55;;;;;;;8.43;7.50;;;21.70;99.90;;;;;;5009173;28;20271;-71
2022/07/22 03:58:21;;;;;;;11.45;8.68;;;21.70;99.90;;;;;;5000036;28;20674;-72
2022/07/22 04:00:46;;;;;;;8.77;7.82;;;21.80;99.90;;;;;;5001995;28;20237;-72
2022/07/22 04:03:12;;;;;;;8.55;7.65;;;21.70;99.90;;;;;;5002004;28;20193;-71
2022/07/22 04:05:37;;;;;;;8.05;7.22;;;21.80;99.90;;;;;;5000940;28;20178;-71
2022/07/22 04:08:03;;;;;;;11.18;8.68;;;21.90;99.90;;;;;;5002979;28;20197;-72
2022/07/22 04:10:29;;;;;;;11.18;8.52;;;21.90;99.90;;;;;;5000462;28;20610;-73
2022/07/22 04:12:54;;;;;;;10.20;8.75;;;21.80;99.90;;;;;;5003736;28;20247;-72
2022/07/22 04:15:20;;;;;;;12.55;10.55;;;21.80;99.90;;;;;;5000161;28;20183;-72
2022/07/22 04:17:46;;;;;;;15.02;10.57;;;21.80;99.90;;;;;;4999706;28;20181;-71
2022/07/22 04:20:11;;;;;;;11.27;9.55;;;21.90;99.90;;;;;;4989830;28;20197;-72
2022/07/22 04:22:37;;;;;;;17.17;12.70;;;21.90;99.90;;;;;;5000052;28;20216;-73
2022/07/22 04:25:03;;;;;;;11.65;9.45;;;22.00;99.90;;;;;;5006285;28;20200;-72
2022/07/22 04:27:28;;;;;;;9.10;8.18;;;22.00;99.90;;;;;;5001630;28;20293;-73
2022/07/22 04:29:54;;;;;;;12.35;9.00;;;22.00;99.90;;;;;;5003586;28;20188;-71
2022/07/22 04:32:19;;;;;;;10.95;8.85;;;22.10;99.90;;;;;;5017186;23;20229;-75
2022/07/22 04:34:45;;;;;;;10.32;9.23;;;22.00;99.90;;;;;;4993950;28;20239;-74
2022/07/22 04:37:11;;;;;;;13.57;9.10;;;21.90;99.90;;;;;;5009116;28;20693;-74
2022/07/22 04:39:36;;;;;;;9.73;8.70;;;22.00;99.90;;;;;;5009490;28;20216;-74
2022/07/22 04:42:02;;;;;;;10.98;9.45;;;21.90;99.90;;;;;;5002571;28;20272;-73
2022/07/22 04:44:27;;;;;;;11.23;8.98;;;22.00;99.90;;;;;;4995209;28;20204;-73
2022/07/22 04:46:53;;;;;;;10.13;8.57;;;22.20;99.90;;;;;;4984463;28;20205;-73
2022/07/22 04:49:19;;;;;;;10.77;9.23;;;22.20;99.90;;;;;;4990265;28;20204;-74
2022/07/22 04:51:44;;;;;;;10.90;8.13;;;22.20;99.90;;;;;;4993152;28;20594;-74
2022/07/22 04:54:10;;;;;;;11.45;9.35;;;22.20;99.90;;;;;;4998351;28;20208;-75
2022/07/22 04:56:35;;;;;;;10.63;8.02;;;22.10;99.90;;;;;;4995196;28;20247;-75
2022/07/22 04:59:01;;;;;;;11.32;9.35;;;22.10;99.90;;;;;;4994859;28;20721;-74
2022/07/22 05:01:26;;;;;;;11.32;8.77;;;22.10;99.90;;;;;;4977811;28;20213;-74
2022/07/22 05:03:52;;;;;;;10.80;9.60;;;22.20;99.90;;;;;;4983999;28;20721;-73
2022/07/22 05:06:18;;;;;;;10.88;9.02;;;22.20;99.90;;;;;;4990762;28;20247;-75
2022/07/22 05:08:43;;;;;;;12.80;9.15;;;22.30;99.90;;;;;;4993369;28;20586;-74
2022/07/22 05:11:09;;;;;;;14.23;8.60;;;22.20;99.90;;;;;;4981508;28;20211;-74
2022/07/22 05:13:35;;;;;;;10.48;9.48;;;22.10;99.90;;;;;;4997753;28;20698;-74
2022/07/22 05:16:05;;;;;;;11.68;10.48;;;22.10;99.90;;;;;;5001856;28;20213;-74
2022/07/22 05:18:30;;;;;;;10.52;9.43;;;22.00;99.90;;;;;;4999337;28;20288;-74
2022/07/22 05:20:56;;;;;;;10.60;9.23;;;22.10;99.90;;;;;;5002379;28;20666;-75
2022/07/22 05:23:21;;;;;;;11.02;9.45;;;22.10;99.90;;;;;;4999111;28;20209;-74
2022/07/22 05:25:47;;;;;;;12.73;9.35;;;22.30;99.90;;;;;;5000465;28;20205;-74
2022/07/22 05:28:13;;;;;;;11.90;10.15;;;22.40;99.90;;;;;;5000846;28;20336;-75
2022/07/22 05:30:38;;;;;;;9.77;8.77;;;22.60;99.90;;;;;;4999280;28;20210;-74
2022/07/22 05:33:04;;;;;;;9.68;8.77;;;22.80;99.90;;;;;;5001938;28;20224;-73
2022/07/22 05:35:29;;;;;;;10.50;8.68;;;22.90;99.90;;;;;;4999239;28;20210;-73
2022/07/22 05:37:56;;;;;;;13.38;9.20;;;23.00;99.90;;;;;;5002724;28;20263;-73
2022/07/22 05:40:21;;;;;;;15.75;9.95;;;22.90;99.90;;;;;;4998664;28;20232;-74
2022/07/22 05:42:47;;;;;;;12.23;9.30;;;22.90;99.90;;;;;;4999859;28;20233;-75
2022/07/22 05:45:13;;;;;;;9.77;8.80;;;22.80;99.90;;;;;;5002501;28;20177;-75
2022/07/22 05:47:38;;;;;;;10.18;8.88;;;22.90;99.90;;;;;;4982046;28;20205;-75
2022/07/22 05:50:04;;;;;;;12.13;9.63;;;23.00;99.90;;;;;;5001353;28;20709;-75
2022/07/22 05:52:30;;;;;;;9.88;8.88;;;23.00;99.90;;;;;;4999115;28;20629;-74
2022/07/22 05:54:58;;;;;;;11.52;9.75;;;23.10;99.90;;;;;;5002391;28;20204;-74
2022/07/22 05:57:24;;;;;;;11.57;9.18;;;23.10;99.90;;;;;;4998572;28;20216;-75
2022/07/22 05:59:49;;;;;;;15.90;11.07;;;23.40;99.90;;;;;;5000468;28;20201;-75
2022/07/22 06:02:15;;;;;;;10.35;9.27;;;23.40;99.90;;;;;;5000563;28;20253;-74
2022/07/22 06:04:41;;;;;;;8.75;7.97;;;23.50;99.90;;;;;;4998418;28;20283;-75
2022/07/22 06:07:06;;;;;;;14.02;9.88;;;23.60;99.90;;;;;;5001931;28;20299;-75
2022/07/22 06:09:32;;;;;;;10.40;9.27;;;23.80;99.90;;;;;;4980751;28;20584;-75
2022/07/22 06:11:57;;;;;;;9.23;8.32;;;23.70;99.90;;;;;;5001161;28;20197;-74
2022/07/22 06:14:23;;;;;;;11.15;9.95;;;23.80;99.90;;;;;;4981010;28;20652;-75
2022/07/22 06:16:48;;;;;;;10.82;9.73;;;23.80;99.90;;;;;;4999743;28;20269;-74
2022/07/22 06:19:15;;;;;;;11.65;10.43;;;23.80;99.90;;;;;;5000197;28;20210;-74
2022/07/22 06:21:40;;;;;;;10.70;9.60;;;23.50;99.90;;;;;;4990351;28;20218;-74
2022/07/22 06:24:06;;;;;;;11.40;10.23;;;23.30;99.90;;;;;;4999517;28;20277;-74
2022/07/22 06:26:32;;;;;;;12.02;10.60;;;23.20;99.90;;;;;;4979310;28;20205;-75
2022/07/22 06:28:57;;;;;;;12.35;11.02;;;23.20;99.90;;;;;;5001864;28;20201;-75
2022/07/22 06:31:23;;;;;;;11.30;10.00;;;23.30;99.90;;;;;;4998143;28;20244;-74
2022/07/22 06:33:48;;;;;;;12.38;10.35;;;23.40;99.90;;;;;;4999397;28;20209;-75
2022/07/22 06:36:14;;;;;;;13.13;10.68;;;23.70;99.90;;;;;;5000535;28;20563;-75
2022/07/22 06:38:40;;;;;;;10.30;9.18;;;23.80;99.90;;;;;;5000825;28;20201;-74
2022/07/22 06:41:06;;;;;;;9.75;8.75;;;23.90;99.90;;;;;;4998785;28;20710;-75
2022/07/22 06:43:31;;;;;;;9.98;9.05;;;24.20;99.90;;;;;;4998041;28;20770;-75
2022/07/22 06:45:57;;;;;;;10.48;8.45;;;24.30;99.90;;;;;;5004604;28;20791;-73
2022/07/22 06:48:22;;;;;;;11.27;9.43;;;24.60;99.90;;;;;;5001438;28;20173;-74
2022/07/22 06:50:48;;;;;;;10.82;8.95;;;24.70;99.90;;;;;;5002252;28;20178;-74
2022/07/22 06:53:14;;;;;;;10.23;9.05;;;24.70;99.90;;;;;;4986520;28;20213;-75
2022/07/22 06:55:39;;;;;;;10.20;8.88;;;24.80;99.90;;;;;;5002839;28;20202;-74
2022/07/22 06:58:05;;;;;;;9.85;8.95;;;25.10;99.90;;;;;;5001855;28;20729;-74
2022/07/22 07:00:30;;;;;;;10.82;9.73;;;25.30;99.90;;;;;;4985273;28;20237;-75
2022/07/22 07:03:00;;;;;;;9.35;8.45;;;25.70;99.90;;;;;;5005810;28;20224;-74
2022/07/22 07:05:28;;;;;;;10.65;9.52;;;26.10;99.90;;;;;;5003829;28;20200;-75
2022/07/22 07:07:54;;;;;;;17.27;9.95;;;26.40;99.90;;;;;;5002921;28;20205;-75
2022/07/22 07:10:20;;;;;;;9.80;8.80;;;26.70;99.90;;;;;;5000898;28;20291;-75
2022/07/22 07:12:46;;;;;;;9.05;7.78;;;26.80;99.90;;;;;;5002646;28;21008;-74
2022/07/22 07:15:11;;;;;;;7.93;7.20;;;27.40;99.90;;;;;;4984361;28;20181;-75
2022/07/22 07:17:37;;;;;;;9.73;8.73;;;27.90;99.90;;;;;;5002029;28;20713;-75
2022/07/22 07:20:04;;;;;;;8.07;7.28;;;28.40;99.90;;;;;;5006673;28;20205;-75
2022/07/22 07:22:30;;;;;;;8.32;7.53;;;28.20;99.90;;;;;;5004794;28;20324;-76
2022/07/22 07:24:55;;;;;;;12.13;10.80;;;28.70;99.90;;;;;;5003762;28;20257;-75
2022/07/22 07:27:21;;;;;;;9.52;7.35;;;29.70;99.90;;;;;;5002246;28;20655;-74
2022/07/22 07:29:46;;;;;;;7.65;6.95;;;30.30;99.90;;;;;;5004157;28;20181;-76
2022/07/22 07:32:12;;;;;;;6.93;6.20;;;30.90;99.90;;;;;;5000984;28;20241;-75
2022/07/22 07:34:38;;;;;;;7.22;6.55;;;30.70;99.90;;;;;;5002929;28;20213;-76
2022/07/22 07:37:04;;;;;;;12.77;6.53;;;30.90;99.90;;;;;;4989253;28;20308;-74
2022/07/22 07:39:29;;;;;;;7.30;6.60;;;31.50;99.90;;;;;;4997532;28;20336;-75
2022/07/22 07:41:55;;;;;;;6.38;5.78;;;31.30;99.90;;;;;;5000064;28;20209;-75
2022/07/22 07:44:21;;;;;;;6.03;5.43;;;30.70;99.90;;;;;;5004790;28;20219;-72
2022/07/22 07:46:46;;;;;;;8.82;5.80;;;30.40;99.90;;;;;;5001866;28;20298;-75
2022/07/22 07:49:12;;;;;;;11.70;6.18;;;29.40;99.90;;;;;;4995774;28;20208;-75
2022/07/22 07:51:38;;;;;;;7.05;6.05;;;29.80;99.90;;;;;;4981182;28;20240;-75
2022/07/22 07:54:03;;;;;;;6.00;5.45;;;30.20;99.90;;;;;;5004880;28;20201;-75
2022/07/22 07:56:29;;;;;;;5.75;5.25;;;30.70;99.90;;;;;;5000975;28;20794;-75
2022/07/22 07:58:55;;;;;;;7.18;5.45;;;31.70;99.90;;;;;;4995079;28;20218;-75
2022/07/22 08:01:20;;;;;;;5.65;5.15;;;31.40;99.90;;;;;;4998678;28;20240;-75
2022/07/22 08:03:46;;;;;;;6.47;5.88;;;30.10;99.90;;;;;;5002094;28;20240;-76
2022/07/22 08:06:12;;;;;;;4.95;4.10;;;30.60;99.90;;;;;;4998518;28;20174;-74
2022/07/22 08:08:37;;;;;;;6.50;5.13;;;32.00;99.90;;;;;;4983049;28;20193;-75
2022/07/22 08:11:03;;;;;;;5.18;4.68;;;33.90;99.90;;;;;;5001971;28;20212;-73
2022/07/22 08:13:29;;;;;;;7.18;4.97;;;34.20;99.90;;;;;;5003758;28;20299;-73
2022/07/22 08:15:55;;;;;;;5.57;4.50;;;32.90;99.90;;;;;;4999831;28;20208;-74
2022/07/22 08:18:21;;;;;;;4.63;4.20;;;32.90;99.90;;;;;;4997669;28;20176;-74
2022/07/22 08:20:46;;;;;;;4.10;3.80;;;32.70;99.90;;;;;;5002631;28;20168;-73
2022/07/22 08:23:12;;;;;;;4.13;3.67;;;32.30;99.90;;;;;;4996478;28;20304;-73
2022/07/22 08:25:38;;;;;;;4.07;3.78;;;31.90;99.90;;;;;;4980648;28;20251;-74
2022/07/22 08:28:04;;;;;;;3.92;3.38;;;32.10;99.90;;;;;;5003158;28;20205;-73
2022/07/22 08:30:30;;;;;;;5.57;4.28;;;31.80;99.90;;;;;;5000932;28;20216;-74
2022/07/22 08:32:56;;;;;;;4.07;3.78;;;31.10;99.90;;;;;;4997952;28;20213;-73
2022/07/22 08:35:21;;;;;;;8.07;4.78;;;29.90;99.90;;;;;;4996469;28;20698;-72
2022/07/22 08:37:47;;;;;;;4.93;4.50;;;29.20;99.90;;;;;;5000375;28;20219;-73
2022/07/22 08:40:15;;;;;;;5.22;4.72;;;28.30;99.90;;;;;;4995155;28;20211;-73
2022/07/22 08:42:42;;;;;;;7.95;4.88;;;27.40;99.90;;;;;;4996268;28;20260;-73
2022/07/22 08:45:09;;;;;;;11.52;6.63;;;26.90;99.90;;;;;;5002398;28;20177;-74
2022/07/22 08:47:35;;;;;;;6.85;5.60;;;26.30;99.90;;;;;;4999711;28;20203;-73
2022/07/22 08:50:01;;;;;;;8.73;6.32;;;25.80;99.90;;;;;;4996161;28;20688;-73
2022/07/22 08:52:26;;;;;;;8.48;5.47;;;25.60;99.90;;;;;;4979534;28;20209;-72
2022/07/22 08:54:52;;;;;;;6.43;5.30;;;25.40;99.90;;;;;;5000853;28;20720;-72
2022/07/22 08:57:18;;;;;;;5.80;5.15;;;25.20;99.90;;;;;;4995006;28;20184;-74
2022/07/22 08:59:56;;;;;;;6.30;4.78;;;25.20;99.90;;;;;;4994903;28;20174;-73
2022/07/22 09:02:23;;;;;;;6.25;5.45;;;25.20;99.90;;;;;;4982149;28;20296;-72
2022/07/22 09:05:00;;;;;;;6.57;5.38;;;25.10;99.90;;;;;;5003273;28;20201;-73
2022/07/22 09:07:31;;;;;;;11.75;5.60;;;25.40;99.90;;;;;;4994079;28;20224;-74
2022/07/22 09:09:58;;;;;;;18.40;6.65;;;25.70;99.90;;;;;;4994446;28;20741;-74
2022/07/22 09:12:27;;;;;;;8.20;5.63;;;26.00;99.90;;;;;;5001522;28;20255;-73
2022/07/22 09:14:54;;;;;;;11.77;5.95;;;26.10;99.90;;;;;;4996278;28;20182;-74
2022/07/22 09:17:30;;;;;;;17.00;5.20;;;26.20;99.90;;;;;;4998719;28;20208;-73
2022/07/22 09:19:58;;;;;;;6.80;5.50;;;25.70;99.90;;;;;;4998321;28;20243;-74
2022/07/22 09:22:41;;;;;;;8.38;5.13;;;25.20;99.90;;;;;;4981712;28;20212;-73
2022/07/22 09:25:18;;;;;;;6.05;5.32;;;25.10;99.90;;;;;;4991129;28;20251;-73
2022/07/22 09:27:44;;;;;;;8.65;7.63;;;24.90;99.90;;;;;;4995191;28;20202;-73
2022/07/22 09:30:16;;;;;;;10.55;6.50;;;24.90;99.90;;;;;;5000295;28;20216;-73
2022/07/22 09:32:43;;;;;;;5.40;4.90;;;24.90;99.90;;;;;;4990886;28;20672;-75
2022/07/22 09:35:10;;;;;;;3.50;3.20;;;24.90;99.90;;;;;;4993958;28;20216;-75
2022/07/22 09:37:52;;;;;;;4.82;3.45;;;24.80;99.90;;;;;;4998926;28;20209;-73
2022/07/22 09:40:29;;;;;;;4.03;3.53;;;25.00;99.90;;;;;;4995511;28;20201;-73
2022/07/22 09:43:00;;;;;;;3.83;3.30;;;25.00;99.90;;;;;;4997256;28;20225;-74
2022/07/22 09:45:27;;;;;;;4.82;3.55;;;25.40;99.90;;;;;;4994623;28;20184;-74
2022/07/22 09:47:58;;;;;;;4.15;3.10;;;25.80;99.90;;;;;;4997446;28;20572;-73
2022/07/22 09:50:25;;;;;;;3.00;2.80;;;26.00;99.90;;;;;;4995027;28;20205;-74
2022/07/22 09:52:53;;;;;;;5.25;2.40;;;26.20;99.90;;;;;;4993360;28;20211;-74
2022/07/22 09:55:21;;;;;;;3.22;2.95;;;26.20;99.90;;;;;;4999367;28;20750;-74
2022/07/22 09:57:48;;;;;;;3.17;2.88;;;26.30;99.90;;;;;;4987505;28;20208;-74
2022/07/22 10:00:16;;;;;;;7.78;2.58;;;26.30;99.90;;;;;;4998271;28;20173;-74
2022/07/22 10:02:49;;;;;;;3.83;3.10;;;26.60;99.90;;;;;;4983908;28;20205;-74
2022/07/22 10:05:24;;;;;;;4.00;3.30;;;26.60;99.90;;;;;;4971421;28;20772;-74
2022/07/22 10:07:50;;;;;;;7.25;3.63;;;26.30;99.90;;;;;;4994781;28;20216;-73
2022/07/22 10:10:20;;;;;;;2.88;2.60;;;26.40;99.90;;;;;;4995109;28;20197;-74
2022/07/22 10:12:49;;;;;;;4.32;2.97;;;26.50;99.90;;;;;;4999815;28;20359;-74
2022/07/22 10:15:15;;;;;;;4.97;4.05;;;26.40;99.90;;;;;;4994428;28;20550;-74
2022/07/22 10:17:44;;;;;;;3.75;3.40;;;26.40;99.90;;;;;;4996946;28;20178;-73
2022/07/22 10:20:11;;;;;;;7.25;3.67;;;26.40;99.90;;;;;;5010436;28;20223;-74
2022/07/22 10:22:41;;;;;;;6.10;3.45;;;26.40;99.90;;;;;;5019249;28;20217;-73
2022/07/22 10:25:08;;;;;;;3.45;3.15;;;26.10;99.90;;;;;;4998674;28;20647;-73
2022/07/22 10:27:56;;;;;;;3.78;3.03;;;26.20;99.90;;;;;;4996690;28;20593;-73
2022/07/22 10:30:34;;;;;;;3.22;2.92;;;26.80;99.90;;;;;;5000303;28;20601;-71
2022/07/22 10:33:12;;;;;;;8.18;3.47;;;27.50;99.90;;;;;;5011827;23;20198;-71
2022/07/22 10:35:44;;;;;;;6.35;4.32;;;27.50;99.90;;;;;;5029305;28;20216;-71
2022/07/22 10:38:13;;;;;;;8.27;3.58;;;27.70;99.90;;;;;;5026354;28;20203;-71
2022/07/22 10:40:56;;;;;;;4.70;2.75;;;27.90;99.90;;;;;;5025359;28;20278;-72
2022/07/22 10:43:26;;;;;;;3.53;3.25;;;28.10;99.90;;;;;;5019625;28;20973;-71
2022/07/22 10:45:54;;;;;;;4.28;2.88;;;28.10;99.90;;;;;;4989404;28;20220;-72
2022/07/22 10:48:21;;;;;;;11.07;4.30;;;27.70;99.90;;;;;;5007623;28;20224;-72
2022/07/22 10:50:55;;;;;;;10.43;2.95;;;27.90;99.90;;;;;;5005084;28;20178;-72
2022/07/22 10:53:45;;;;;;;9.10;3.78;;;27.90;99.90;;;;;;5005653;28;20298;-71
2022/07/22 10:56:16;;;;;;;6.00;4.43;;;27.90;99.90;;;;;;5005723;28;20310;-72
2022/07/22 10:58:51;;;;;;;5.13;4.15;;;27.90;99.90;;;;;;5001809;28;20225;-72
2022/07/22 11:01:20;;;;;;;3.50;3.20;;;28.10;99.90;;;;;;5006833;28;20205;-72
2022/07/22 11:03:47;;;;;;;4.95;3.70;;;27.90;99.90;;;;;;5006134;28;20231;-71
2022/07/22 11:06:21;;;;;;;5.93;4.28;;;27.80;99.90;;;;;;4994560;28;20267;-72
2022/07/22 11:08:59;;;;;;;13.38;9.98;;;27.80;99.90;;;;;;5005399;28;20180;-71
2022/07/22 11:11:41;;;;;;;6.63;5.18;;;27.40;99.90;;;;;;5004722;28;20213;-71
2022/07/22 11:14:24;;;;;;;4.15;3.85;;;27.30;99.90;;;;;;4988431;28;20314;-71
2022/07/22 11:16:51;;;;;;;4.30;3.90;;;27.30;99.90;;;;;;5006417;28;20231;-72
2022/07/22 11:19:26;;;;;;;5.80;4.13;;;27.30;99.90;;;;;;5002592;28;20204;-71
2022/07/22 11:21:57;;;;;;;5.03;4.30;;;27.50;99.90;;;;;;5005483;28;20739;-72
2022/07/22 11:24:24;;;;;;;5.05;4.63;;;27.50;99.90;;;;;;5004475;28;20720;-72
2022/07/22 11:26:54;;;;;;;4.20;3.80;;;27.40;99.90;;;;;;5007042;28;20177;-72
2022/07/22 11:29:35;;;;;;;5.30;3.47;;;27.40;99.90;;;;;;5004296;28;20370;-71
2022/07/22 11:32:04;;;;;;;6.07;4.10;;;27.70;99.90;;;;;;5002569;28;20302;-72
2022/07/22 11:34:30;;;;;;;4.60;3.80;;;27.90;99.90;;;;;;4992376;28;20217;-72
2022/07/22 11:36:56;;;;;;;3.40;3.20;;;28.00;99.90;;;;;;5005864;28;20259;-71
2022/07/22 11:39:28;;;;;;;3.72;3.42;;;28.10;99.90;;;;;;5003720;28;20173;-71
2022/07/22 11:41:56;;;;;;;3.50;3.13;;;28.10;99.90;;;;;;5006978;28;20227;-72
2022/07/22 11:44:24;;;;;;;4.75;3.55;;;27.90;99.90;;;;;;5004058;28;20235;-71
2022/07/22 11:46:50;;;;;;;3.92;3.63;;;27.90;99.90;;;;;;5004217;28;20267;-71
2022/07/22 11:49:19;;;;;;;4.75;3.85;;;27.80;99.90;;;;;;5004984;28;20686;-71
2022/07/22 11:51:45;;;;;;;3.90;3.60;;;27.80;99.90;;;;;;5000615;28;20713;-71
2022/07/22 11:54:11;;;;;;;3.65;3.35;;;27.20;99.90;;;;;;5002734;28;20215;-71
2022/07/22 11:56:37;;;;;;;3.50;3.20;;;27.20;99.90;;;;;;5003629;28;20181;-71
2022/07/22 11:59:08;;;;;;;4.35;3.95;;;27.20;99.90;;;;;;5002910;28;20228;-71
2022/07/22 12:01:36;;;;;;;11.30;7.40;;;27.30;99.90;;;;;;5004022;28;20609;-71
2022/07/22 12:04:08;;;;;;;13.10;4.47;;;27.40;99.90;;;;;;5005811;28;20254;-71
2022/07/22 12:06:37;;;;;;;5.28;3.58;;;27.60;99.90;;;;;;5003873;28;20205;-71
2022/07/22 12:09:02;;;;;;;5.65;3.45;;;27.70;99.90;;;;;;5004931;28;20185;-73
2022/07/22 12:11:29;;;;;;;6.15;3.33;;;28.00;99.90;;;;;;5002864;28;20212;-71
2022/07/22 12:13:55;;;;;;;3.70;3.17;;;27.90;99.90;;;;;;5002618;28;20213;-71
2022/07/22 12:16:23;;;;;;;4.43;3.03;;;27.90;99.90;;;;;;5005243;28;20211;-71
2022/07/22 12:19:01;;;;;;;2.80;2.60;;;27.60;99.90;;;;;;4987795;28;20213;-71
2022/07/22 12:21:33;;;;;;;3.13;2.63;;;27.50;99.90;;;;;;5003717;28;20224;-71
2022/07/22 12:24:05;;;;;;;4.15;2.67;;;27.60;99.90;;;;;;5001544;28;20717;-71
2022/07/22 12:26:48;;;;;;;7.75;2.88;;;27.70;99.90;;;;;;5004304;28;20209;-71
2022/07/22 12:29:29;;;;;;;3.05;2.85;;;27.60;99.90;;;;;;5002255;28;20270;-70
2022/07/22 12:31:58;;;;;;;3.15;2.50;;;27.70;99.90;;;;;;5001482;28;20236;-71
2022/07/22 12:34:35;;;;;;;2.88;2.10;;;27.50;99.90;;;;;;5003272;28;20212;-70
2022/07/22 12:37:22;;;;;;;3.28;2.60;;;27.00;99.90;;;;;;5002281;28;20599;-70
2022/07/22 12:40:05;;;;;;;4.95;2.67;;;26.70;99.90;;;;;;5002768;28;20205;-70
2022/07/22 12:42:36;;;;;;;2.70;2.40;;;26.80;99.90;;;;;;4987159;28;20243;-70
2022/07/22 12:45:05;;;;;;;3.92;2.90;;;26.70;99.90;;;;;;5006401;28;20169;-70